sensor_id;sensor_type;location;lat;lon;timestamp;P1;durP1;ratioP1;P2;durP2;ratioP2
34978;SDS011;21185;50.978;13.720;2022-12-18T00:04:38;11.73;;;5.72;;
34978;SDS011;21185;50.978;13.720;2022-12-18T00:09:40;16.17;;;8.00;;
34978;SDS011;21185;50.978;13.720;2022-12-18T00:14:42;24.10;;;9.23;;
34978;SDS011;21185;50.978;13.720;2022-12-18T00:19:43;27.05;;;8.75;;
34978;SDS011;21185;50.978;13.720;2022-12-18T00:24:45;20.23;;;8.70;;
34978;SDS011;21185;50.978;13.720;2022-12-18T00:29:47;21.33;;;9.70;;
34978;SDS011;21185;50.978;13.720;2022-12-18T00:34:50;23.40;;;8.55;;
34978;SDS011;21185;50.978;13.720;2022-12-18T00:39:52;25.77;;;9.80;;
34978;SDS011;21185;50.978;13.720;2022-12-18T00:44:54;18.35;;;8.75;;
34978;SDS011;21185;50.978;13.720;2022-12-18T00:49:56;22.73;;;8.43;;
34978;SDS011;21185;50.978;13.720;2022-12-18T00:54:58;18.30;;;7.03;;
34978;SDS011;21185;50.978;13.720;2022-12-18T01:00:07;18.63;;;7.53;;
34978;SDS011;21185;50.978;13.720;2022-12-18T01:05:12;13.63;;;5.93;;
34978;SDS011;21185;50.978;13.720;2022-12-18T01:10:14;24.95;;;8.80;;
34978;SDS011;21185;50.978;13.720;2022-12-18T01:15:16;19.95;;;7.28;;
34978;SDS011;21185;50.978;13.720;2022-12-18T01:20:19;22.27;;;7.38;;
34978;SDS011;21185;50.978;13.720;2022-12-18T01:25:21;18.05;;;8.15;;
34978;SDS011;21185;50.978;13.720;2022-12-18T01:30:24;22.23;;;8.07;;
34978;SDS011;21185;50.978;13.720;2022-12-18T01:35:27;23.58;;;8.80;;
34978;SDS011;21185;50.978;13.720;2022-12-18T01:40:29;21.30;;;7.90;;
34978;SDS011;21185;50.978;13.720;2022-12-18T01:45:31;17.15;;;8.85;;
34978;SDS011;21185;50.978;13.720;2022-12-18T01:50:34;19.77;;;8.15;;
34978;SDS011;21185;50.978;13.720;2022-12-18T01:55:45;20.53;;;8.03;;
34978;SDS011;21185;50.978;13.720;2022-12-18T02:00:50;17.38;;;8.93;;
34978;SDS011;21185;50.978;13.720;2022-12-18T02:16:43;16.15;;;6.57;;
34978;SDS011;21185;50.978;13.720;2022-12-18T02:22:44;22.42;;;7.15;;
34978;SDS011;21185;50.978;13.720;2022-12-18T02:27:36;21.75;;;7.50;;
34978;SDS011;21185;50.978;13.720;2022-12-18T02:32:43;12.68;;;6.63;;
34978;SDS011;21185;50.978;13.720;2022-12-18T02:37:50;15.80;;;6.28;;
34978;SDS011;21185;50.978;13.720;2022-12-18T02:48:28;15.60;;;6.80;;
34978;SDS011;21185;50.978;13.720;2022-12-18T02:58:58;23.13;;;7.25;;
34978;SDS011;21185;50.978;13.720;2022-12-18T03:04:38;13.85;;;7.40;;
34978;SDS011;21185;50.978;13.720;2022-12-18T03:09:51;14.73;;;6.93;;
34978;SDS011;21185;50.978;13.720;2022-12-18T03:15:07;14.75;;;7.00;;
34978;SDS011;21185;50.978;13.720;2022-12-18T03:20:20;12.85;;;6.72;;
34978;SDS011;21185;50.978;13.720;2022-12-18T03:25:26;17.50;;;7.40;;
34978;SDS011;21185;50.978;13.720;2022-12-18T03:30:29;10.73;;;6.45;;
34978;SDS011;21185;50.978;13.720;2022-12-18T03:35:35;18.95;;;7.68;;
34978;SDS011;21185;50.978;13.720;2022-12-18T03:40:53;12.00;;;6.63;;
34978;SDS011;21185;50.978;13.720;2022-12-18T03:46:24;17.00;;;6.45;;
34978;SDS011;21185;50.978;13.720;2022-12-18T03:51:46;14.45;;;7.20;;
34978;SDS011;21185;50.978;13.720;2022-12-18T03:57:09;14.95;;;6.18;;
34978;SDS011;21185;50.978;13.720;2022-12-18T04:02:16;14.52;;;6.00;;
34978;SDS011;21185;50.978;13.720;2022-12-18T04:07:20;17.83;;;6.03;;
34978;SDS011;21185;50.978;13.720;2022-12-18T04:12:24;17.13;;;6.30;;
34978;SDS011;21185;50.978;13.720;2022-12-18T04:17:27;13.55;;;7.35;;
34978;SDS011;21185;50.978;13.720;2022-12-18T04:22:31;12.05;;;6.03;;
34978;SDS011;21185;50.978;13.720;2022-12-18T04:27:34;13.80;;;5.63;;
34978;SDS011;21185;50.978;13.720;2022-12-18T04:32:38;9.55;;;5.10;;
34978;SDS011;21185;50.978;13.720;2022-12-18T04:37:40;12.00;;;4.05;;
34978;SDS011;21185;50.978;13.720;2022-12-18T04:42:42;8.32;;;4.20;;
34978;SDS011;21185;50.978;13.720;2022-12-18T04:47:44;11.23;;;4.68;;
34978;SDS011;21185;50.978;13.720;2022-12-18T04:52:46;12.15;;;4.65;;
34978;SDS011;21185;50.978;13.720;2022-12-18T04:57:48;6.65;;;3.28;;
34978;SDS011;21185;50.978;13.720;2022-12-18T05:02:50;10.40;;;3.75;;
34978;SDS011;21185;50.978;13.720;2022-12-18T05:07:52;10.05;;;3.50;;
34978;SDS011;21185;50.978;13.720;2022-12-18T05:12:54;8.10;;;4.75;;
34978;SDS011;21185;50.978;13.720;2022-12-18T05:18:00;8.77;;;4.57;;
34978;SDS011;21185;50.978;13.720;2022-12-18T05:23:04;10.82;;;4.47;;
34978;SDS011;21185;50.978;13.720;2022-12-18T05:28:05;11.27;;;5.15;;
34978;SDS011;21185;50.978;13.720;2022-12-18T05:33:07;10.38;;;5.47;;
34978;SDS011;21185;50.978;13.720;2022-12-18T05:38:09;10.68;;;5.00;;
34978;SDS011;21185;50.978;13.720;2022-12-18T05:43:11;10.52;;;4.72;;
34978;SDS011;21185;50.978;13.720;2022-12-18T05:48:21;12.43;;;5.13;;
34978;SDS011;21185;50.978;13.720;2022-12-18T05:53:23;12.15;;;5.90;;
34978;SDS011;21185;50.978;13.720;2022-12-18T05:58:25;13.38;;;5.68;;
34978;SDS011;21185;50.978;13.720;2022-12-18T06:03:27;15.15;;;5.43;;
34978;SDS011;21185;50.978;13.720;2022-12-18T06:08:34;8.98;;;4.95;;
34978;SDS011;21185;50.978;13.720;2022-12-18T06:13:37;10.02;;;5.70;;
34978;SDS011;21185;50.978;13.720;2022-12-18T06:18:40;10.82;;;4.30;;
34978;SDS011;21185;50.978;13.720;2022-12-18T06:23:42;9.05;;;5.13;;
34978;SDS011;21185;50.978;13.720;2022-12-18T06:28:44;10.00;;;4.28;;
34978;SDS011;21185;50.978;13.720;2022-12-18T06:33:46;9.20;;;5.25;;
34978;SDS011;21185;50.978;13.720;2022-12-18T06:38:48;10.27;;;4.38;;
34978;SDS011;21185;50.978;13.720;2022-12-18T06:43:50;10.07;;;3.95;;
34978;SDS011;21185;50.978;13.720;2022-12-18T06:48:58;10.63;;;4.13;;
34978;SDS011;21185;50.978;13.720;2022-12-18T06:54:00;8.85;;;4.03;;
34978;SDS011;21185;50.978;13.720;2022-12-18T06:59:02;11.63;;;4.55;;
34978;SDS011;21185;50.978;13.720;2022-12-18T07:04:04;9.93;;;4.65;;
34978;SDS011;21185;50.978;13.720;2022-12-18T07:09:06;11.65;;;5.18;;
34978;SDS011;21185;50.978;13.720;2022-12-18T07:14:08;10.95;;;4.93;;
34978;SDS011;21185;50.978;13.720;2022-12-18T07:19:10;16.58;;;5.68;;
34978;SDS011;21185;50.978;13.720;2022-12-18T07:24:12;7.80;;;5.10;;
34978;SDS011;21185;50.978;13.720;2022-12-18T07:29:14;22.42;;;6.80;;
34978;SDS011;21185;50.978;13.720;2022-12-18T07:34:16;12.63;;;5.65;;
34978;SDS011;21185;50.978;13.720;2022-12-18T07:39:18;9.40;;;5.82;;
34978;SDS011;21185;50.978;13.720;2022-12-18T07:44:20;13.73;;;5.95;;
34978;SDS011;21185;50.978;13.720;2022-12-18T07:49:21;15.57;;;7.10;;
34978;SDS011;21185;50.978;13.720;2022-12-18T07:54:23;15.13;;;6.68;;
34978;SDS011;21185;50.978;13.720;2022-12-18T07:59:27;14.40;;;6.68;;
34978;SDS011;21185;50.978;13.720;2022-12-18T08:04:29;12.35;;;5.90;;
34978;SDS011;21185;50.978;13.720;2022-12-18T08:09:30;16.88;;;6.55;;
34978;SDS011;21185;50.978;13.720;2022-12-18T08:14:32;15.95;;;7.20;;
34978;SDS011;21185;50.978;13.720;2022-12-18T08:19:34;18.40;;;7.10;;
34978;SDS011;21185;50.978;13.720;2022-12-18T08:24:36;16.55;;;7.95;;
34978;SDS011;21185;50.978;13.720;2022-12-18T08:29:38;18.73;;;8.48;;
34978;SDS011;21185;50.978;13.720;2022-12-18T08:34:40;23.58;;;10.00;;
34978;SDS011;21185;50.978;13.720;2022-12-18T08:39:41;21.70;;;9.10;;
34978;SDS011;21185;50.978;13.720;2022-12-18T08:44:43;18.55;;;8.05;;
34978;SDS011;21185;50.978;13.720;2022-12-18T08:49:45;16.92;;;8.18;;
34978;SDS011;21185;50.978;13.720;2022-12-18T08:54:47;15.77;;;8.15;;
34978;SDS011;21185;50.978;13.720;2022-12-18T08:59:49;17.92;;;7.85;;
34978;SDS011;21185;50.978;13.720;2022-12-18T09:04:51;15.10;;;7.85;;
34978;SDS011;21185;50.978;13.720;2022-12-18T09:09:57;16.10;;;7.72;;
34978;SDS011;21185;50.978;13.720;2022-12-18T09:14:59;15.55;;;7.80;;
34978;SDS011;21185;50.978;13.720;2022-12-18T09:20:01;25.58;;;8.95;;
34978;SDS011;21185;50.978;13.720;2022-12-18T09:25:04;20.92;;;8.65;;
34978;SDS011;21185;50.978;13.720;2022-12-18T09:30:09;16.67;;;7.80;;
34978;SDS011;21185;50.978;13.720;2022-12-18T09:35:11;20.55;;;8.85;;
34978;SDS011;21185;50.978;13.720;2022-12-18T09:40:17;19.63;;;9.50;;
34978;SDS011;21185;50.978;13.720;2022-12-18T09:45:22;22.27;;;7.30;;
34978;SDS011;21185;50.978;13.720;2022-12-18T09:50:35;25.08;;;8.88;;
34978;SDS011;21185;50.978;13.720;2022-12-18T09:55:41;19.52;;;8.70;;
34978;SDS011;21185;50.978;13.720;2022-12-18T10:00:46;21.23;;;9.50;;
34978;SDS011;21185;50.978;13.720;2022-12-18T10:10:57;21.35;;;9.57;;
34978;SDS011;21185;50.978;13.720;2022-12-18T10:21:38;24.40;;;10.93;;
34978;SDS011;21185;50.978;13.720;2022-12-18T10:26:55;20.85;;;8.55;;
34978;SDS011;21185;50.978;13.720;2022-12-18T10:32:18;22.63;;;9.90;;
34978;SDS011;21185;50.978;13.720;2022-12-18T10:37:23;27.05;;;10.73;;
34978;SDS011;21185;50.978;13.720;2022-12-18T10:42:27;26.10;;;10.00;;
34978;SDS011;21185;50.978;13.720;2022-12-18T10:47:28;29.20;;;10.50;;
34978;SDS011;21185;50.978;13.720;2022-12-18T10:52:30;27.30;;;13.07;;
34978;SDS011;21185;50.978;13.720;2022-12-18T10:57:36;22.40;;;10.30;;
34978;SDS011;21185;50.978;13.720;2022-12-18T11:02:40;21.80;;;9.73;;
34978;SDS011;21185;50.978;13.720;2022-12-18T11:07:49;26.67;;;10.23;;
34978;SDS011;21185;50.978;13.720;2022-12-18T11:12:52;21.02;;;9.45;;
34978;SDS011;21185;50.978;13.720;2022-12-18T11:17:54;32.63;;;10.75;;
34978;SDS011;21185;50.978;13.720;2022-12-18T11:22:57;26.80;;;10.57;;
34978;SDS011;21185;50.978;13.720;2022-12-18T11:28:04;25.02;;;10.18;;
34978;SDS011;21185;50.978;13.720;2022-12-18T11:33:25;30.08;;;12.48;;
34978;SDS011;21185;50.978;13.720;2022-12-18T11:38:32;48.67;;;16.50;;
34978;SDS011;21185;50.978;13.720;2022-12-18T11:43:44;37.90;;;13.57;;
34978;SDS011;21185;50.978;13.720;2022-12-18T11:53:55;34.70;;;13.50;;
34978;SDS011;21185;50.978;13.720;2022-12-18T11:59:08;27.73;;;12.23;;
34978;SDS011;21185;50.978;13.720;2022-12-18T12:04:37;31.38;;;13.18;;
34978;SDS011;21185;50.978;13.720;2022-12-18T12:25:47;32.97;;;12.13;;
34978;SDS011;21185;50.978;13.720;2022-12-18T12:31:03;32.53;;;11.90;;
34978;SDS011;21185;50.978;13.720;2022-12-18T12:36:32;29.35;;;12.35;;
34978;SDS011;21185;50.978;13.720;2022-12-18T12:41:42;28.50;;;11.85;;
34978;SDS011;21185;50.978;13.720;2022-12-18T12:47:51;32.10;;;10.77;;
34978;SDS011;21185;50.978;13.720;2022-12-18T12:52:35;38.63;;;12.73;;
34978;SDS011;21185;50.978;13.720;2022-12-18T13:03:15;30.35;;;12.07;;
34978;SDS011;21185;50.978;13.720;2022-12-18T13:08:29;26.33;;;10.93;;
34978;SDS011;21185;50.978;13.720;2022-12-18T13:13:48;26.90;;;10.43;;
34978;SDS011;21185;50.978;13.720;2022-12-18T13:18:54;29.92;;;12.10;;
34978;SDS011;21185;50.978;13.720;2022-12-18T13:24:14;30.70;;;11.57;;
34978;SDS011;21185;50.978;13.720;2022-12-18T13:29:43;37.35;;;11.10;;
34978;SDS011;21185;50.978;13.720;2022-12-18T13:34:47;22.35;;;9.35;;
34978;SDS011;21185;50.978;13.720;2022-12-18T13:39:48;23.48;;;9.25;;
34978;SDS011;21185;50.978;13.720;2022-12-18T13:44:50;31.13;;;10.98;;
34978;SDS011;21185;50.978;13.720;2022-12-18T13:49:53;26.40;;;11.00;;
34978;SDS011;21185;50.978;13.720;2022-12-18T13:54:56;24.73;;;9.85;;
34978;SDS011;21185;50.978;13.720;2022-12-18T14:00:44;31.58;;;10.25;;
34978;SDS011;21185;50.978;13.720;2022-12-18T14:05:30;32.97;;;12.23;;
34978;SDS011;21185;50.978;13.720;2022-12-18T14:10:35;27.77;;;9.57;;
34978;SDS011;21185;50.978;13.720;2022-12-18T14:15:50;31.52;;;10.50;;
34978;SDS011;21185;50.978;13.720;2022-12-18T14:20:53;23.70;;;8.88;;
34978;SDS011;21185;50.978;13.720;2022-12-18T14:25:58;28.02;;;11.75;;
34978;SDS011;21185;50.978;13.720;2022-12-18T14:31:16;25.02;;;10.65;;
34978;SDS011;21185;50.978;13.720;2022-12-18T14:36:22;25.85;;;10.43;;
34978;SDS011;21185;50.978;13.720;2022-12-18T14:41:30;26.48;;;10.93;;
34978;SDS011;21185;50.978;13.720;2022-12-18T14:51:38;24.77;;;10.48;;
34978;SDS011;21185;50.978;13.720;2022-12-18T14:56:44;41.85;;;12.93;;
34978;SDS011;21185;50.978;13.720;2022-12-18T15:01:56;22.83;;;10.15;;
34978;SDS011;21185;50.978;13.720;2022-12-18T15:07:20;30.92;;;10.85;;
34978;SDS011;21185;50.978;13.720;2022-12-18T15:12:28;20.98;;;8.48;;
34978;SDS011;21185;50.978;13.720;2022-12-18T15:22:42;24.83;;;8.80;;
34978;SDS011;21185;50.978;13.720;2022-12-18T15:27:45;28.48;;;9.75;;
34978;SDS011;21185;50.978;13.720;2022-12-18T15:32:49;22.15;;;8.02;;
34978;SDS011;21185;50.978;13.720;2022-12-18T15:37:51;26.75;;;9.15;;
34978;SDS011;21185;50.978;13.720;2022-12-18T15:42:53;32.63;;;12.68;;
34978;SDS011;21185;50.978;13.720;2022-12-18T15:48:24;25.15;;;10.60;;
34978;SDS011;21185;50.978;13.720;2022-12-18T15:53:29;32.22;;;12.40;;
34978;SDS011;21185;50.978;13.720;2022-12-18T16:03:36;28.58;;;11.40;;
34978;SDS011;21185;50.978;13.720;2022-12-18T16:08:38;28.92;;;10.20;;
34978;SDS011;21185;50.978;13.720;2022-12-18T16:13:41;28.70;;;11.45;;
34978;SDS011;21185;50.978;13.720;2022-12-18T16:18:44;24.02;;;11.18;;
34978;SDS011;21185;50.978;13.720;2022-12-18T16:23:46;28.65;;;11.60;;
34978;SDS011;21185;50.978;13.720;2022-12-18T16:28:48;31.63;;;10.88;;
34978;SDS011;21185;50.978;13.720;2022-12-18T16:33:49;27.33;;;10.73;;
34978;SDS011;21185;50.978;13.720;2022-12-18T16:39:14;28.73;;;10.48;;
34978;SDS011;21185;50.978;13.720;2022-12-18T16:44:16;28.00;;;10.65;;
34978;SDS011;21185;50.978;13.720;2022-12-18T16:49:18;40.22;;;10.85;;
34978;SDS011;21185;50.978;13.720;2022-12-18T16:54:20;20.23;;;7.43;;
34978;SDS011;21185;50.978;13.720;2022-12-18T16:59:22;20.55;;;8.55;;
34978;SDS011;21185;50.978;13.720;2022-12-18T17:04:24;22.77;;;10.07;;
34978;SDS011;21185;50.978;13.720;2022-12-18T17:09:26;26.15;;;9.38;;
34978;SDS011;21185;50.978;13.720;2022-12-18T17:14:28;22.20;;;9.40;;
34978;SDS011;21185;50.978;13.720;2022-12-18T17:19:30;21.23;;;8.50;;
34978;SDS011;21185;50.978;13.720;2022-12-18T17:24:32;24.70;;;9.40;;
34978;SDS011;21185;50.978;13.720;2022-12-18T17:29:35;22.77;;;7.97;;
34978;SDS011;21185;50.978;13.720;2022-12-18T17:34:46;20.45;;;7.38;;
34978;SDS011;21185;50.978;13.720;2022-12-18T17:39:48;16.48;;;7.63;;
34978;SDS011;21185;50.978;13.720;2022-12-18T17:44:50;21.35;;;7.63;;
34978;SDS011;21185;50.978;13.720;2022-12-18T17:49:51;21.58;;;7.75;;
34978;SDS011;21185;50.978;13.720;2022-12-18T17:54:56;24.60;;;8.50;;
34978;SDS011;21185;50.978;13.720;2022-12-18T17:59:57;28.27;;;9.98;;
34978;SDS011;21185;50.978;13.720;2022-12-18T18:04:59;24.65;;;10.07;;
34978;SDS011;21185;50.978;13.720;2022-12-18T18:10:01;21.92;;;8.35;;
34978;SDS011;21185;50.978;13.720;2022-12-18T18:15:03;25.00;;;8.40;;
34978;SDS011;21185;50.978;13.720;2022-12-18T18:20:06;19.45;;;8.20;;
34978;SDS011;21185;50.978;13.720;2022-12-18T18:25:08;23.52;;;8.68;;
34978;SDS011;21185;50.978;13.720;2022-12-18T18:30:11;21.33;;;8.55;;
34978;SDS011;21185;50.978;13.720;2022-12-18T18:35:13;23.05;;;8.85;;
34978;SDS011;21185;50.978;13.720;2022-12-18T18:40:35;20.63;;;7.93;;
34978;SDS011;21185;50.978;13.720;2022-12-18T18:45:37;25.80;;;10.07;;
34978;SDS011;21185;50.978;13.720;2022-12-18T18:50:40;30.65;;;10.38;;
34978;SDS011;21185;50.978;13.720;2022-12-18T18:55:44;29.02;;;9.07;;
34978;SDS011;21185;50.978;13.720;2022-12-18T19:01:12;20.42;;;8.50;;
34978;SDS011;21185;50.978;13.720;2022-12-18T19:06:18;22.35;;;9.77;;
34978;SDS011;21185;50.978;13.720;2022-12-18T19:11:25;24.38;;;8.63;;
34978;SDS011;21185;50.978;13.720;2022-12-18T19:16:45;25.77;;;9.25;;
34978;SDS011;21185;50.978;13.720;2022-12-18T19:21:47;31.27;;;10.98;;
34978;SDS011;21185;50.978;13.720;2022-12-18T19:26:50;16.77;;;8.45;;
34978;SDS011;21185;50.978;13.720;2022-12-18T19:31:55;18.85;;;7.80;;
34978;SDS011;21185;50.978;13.720;2022-12-18T19:36:57;24.50;;;8.93;;
34978;SDS011;21185;50.978;13.720;2022-12-18T19:42:00;19.65;;;8.77;;
34978;SDS011;21185;50.978;13.720;2022-12-18T19:47:02;20.45;;;8.45;;
34978;SDS011;21185;50.978;13.720;2022-12-18T19:52:04;15.85;;;7.60;;
34978;SDS011;21185;50.978;13.720;2022-12-18T19:57:06;19.08;;;7.72;;
34978;SDS011;21185;50.978;13.720;2022-12-18T20:02:11;21.67;;;8.05;;
34978;SDS011;21185;50.978;13.720;2022-12-18T20:07:14;21.95;;;7.75;;
34978;SDS011;21185;50.978;13.720;2022-12-18T20:12:16;16.20;;;6.47;;
34978;SDS011;21185;50.978;13.720;2022-12-18T20:17:18;23.00;;;6.13;;
34978;SDS011;21185;50.978;13.720;2022-12-18T20:22:21;14.02;;;7.07;;
34978;SDS011;21185;50.978;13.720;2022-12-18T20:27:23;17.20;;;7.90;;
34978;SDS011;21185;50.978;13.720;2022-12-18T20:32:25;17.23;;;7.43;;
34978;SDS011;21185;50.978;13.720;2022-12-18T20:37:29;23.80;;;7.72;;
34978;SDS011;21185;50.978;13.720;2022-12-18T20:42:32;12.55;;;6.45;;
34978;SDS011;21185;50.978;13.720;2022-12-18T20:47:33;14.50;;;6.60;;
34978;SDS011;21185;50.978;13.720;2022-12-18T20:52:35;16.10;;;5.82;;
34978;SDS011;21185;50.978;13.720;2022-12-18T20:57:37;26.77;;;8.32;;
34978;SDS011;21185;50.978;13.720;2022-12-18T21:02:39;19.90;;;7.90;;
34978;SDS011;21185;50.978;13.720;2022-12-18T21:07:41;15.93;;;6.00;;
34978;SDS011;21185;50.978;13.720;2022-12-18T21:12:43;20.95;;;6.63;;
34978;SDS011;21185;50.978;13.720;2022-12-18T21:18:03;11.63;;;5.28;;
34978;SDS011;21185;50.978;13.720;2022-12-18T21:23:05;10.63;;;5.97;;
34978;SDS011;21185;50.978;13.720;2022-12-18T21:28:17;14.82;;;6.05;;
34978;SDS011;21185;50.978;13.720;2022-12-18T21:33:19;16.63;;;7.32;;
34978;SDS011;21185;50.978;13.720;2022-12-18T21:38:21;18.42;;;6.72;;
34978;SDS011;21185;50.978;13.720;2022-12-18T21:43:23;17.55;;;7.03;;
34978;SDS011;21185;50.978;13.720;2022-12-18T21:48:43;20.48;;;7.95;;
34978;SDS011;21185;50.978;13.720;2022-12-18T21:53:46;17.98;;;7.82;;
34978;SDS011;21185;50.978;13.720;2022-12-18T21:58:49;16.30;;;8.38;;
34978;SDS011;21185;50.978;13.720;2022-12-18T22:03:57;16.25;;;6.95;;
34978;SDS011;21185;50.978;13.720;2022-12-18T22:08:59;24.88;;;9.20;;
34978;SDS011;21185;50.978;13.720;2022-12-18T22:14:01;21.65;;;8.73;;
34978;SDS011;21185;50.978;13.720;2022-12-18T22:19:03;22.20;;;9.38;;
34978;SDS011;21185;50.978;13.720;2022-12-18T22:24:06;24.13;;;9.55;;
34978;SDS011;21185;50.978;13.720;2022-12-18T22:29:15;24.75;;;9.85;;
34978;SDS011;21185;50.978;13.720;2022-12-18T22:34:38;22.55;;;8.18;;
34978;SDS011;21185;50.978;13.720;2022-12-18T22:39:40;19.40;;;8.07;;
34978;SDS011;21185;50.978;13.720;2022-12-18T22:44:42;23.00;;;8.88;;
34978;SDS011;21185;50.978;13.720;2022-12-18T22:49:44;23.23;;;8.10;;
34978;SDS011;21185;50.978;13.720;2022-12-18T22:54:46;24.85;;;9.25;;
34978;SDS011;21185;50.978;13.720;2022-12-18T22:59:48;22.17;;;8.00;;
34978;SDS011;21185;50.978;13.720;2022-12-18T23:04:50;25.45;;;8.45;;
34978;SDS011;21185;50.978;13.720;2022-12-18T23:09:52;27.20;;;10.02;;
34978;SDS011;21185;50.978;13.720;2022-12-18T23:15:02;21.95;;;9.80;;
34978;SDS011;21185;50.978;13.720;2022-12-18T23:20:05;23.02;;;10.65;;
34978;SDS011;21185;50.978;13.720;2022-12-18T23:25:07;20.90;;;10.57;;
34978;SDS011;21185;50.978;13.720;2022-12-18T23:30:10;22.70;;;9.20;;
34978;SDS011;21185;50.978;13.720;2022-12-18T23:35:12;18.73;;;8.82;;
34978;SDS011;21185;50.978;13.720;2022-12-18T23:40:16;20.77;;;7.90;;
34978;SDS011;21185;50.978;13.720;2022-12-18T23:45:18;26.88;;;11.18;;
34978;SDS011;21185;50.978;13.720;2022-12-18T23:50:20;22.27;;;9.13;;
34978;SDS011;21185;50.978;13.720;2022-12-18T23:55:30;32.20;;;11.63;;
